createdAt,value
2023-05-14T00:01:56.784Z,8.83
2023-05-14T00:07:01.364Z,8.80
2023-05-14T00:12:05.862Z,8.79
2023-05-14T00:17:09.625Z,8.73
2023-05-14T00:22:13.520Z,8.67
2023-05-14T00:27:17.466Z,8.66
2023-05-14T00:32:21.541Z,8.71
2023-05-14T00:37:25.852Z,8.82
2023-05-14T00:42:29.547Z,8.95
2023-05-14T00:47:35.227Z,9.09
2023-05-14T00:52:39.790Z,9.21
2023-05-14T00:57:44.210Z,9.38
2023-05-14T01:02:48.139Z,9.52
2023-05-14T01:08:08.997Z,9.62
2023-05-14T01:13:27.956Z,9.72
2023-05-14T01:18:34.043Z,9.79
2023-05-14T01:23:38.357Z,9.83
2023-05-14T01:28:42.837Z,9.86
2023-05-14T01:33:49.847Z,9.89
2023-05-14T01:38:55.025Z,9.94
2023-05-14T01:43:59.285Z,9.97
2023-05-14T01:49:03.823Z,10.00
2023-05-14T01:54:07.680Z,10.03
2023-05-14T01:59:11.648Z,10.04
2023-05-14T02:04:16.069Z,10.05
2023-05-14T02:09:19.932Z,10.04
2023-05-14T02:14:23.730Z,10.06
2023-05-14T02:19:27.328Z,10.08
2023-05-14T02:24:31.083Z,10.04
2023-05-14T02:29:34.845Z,10.00
2023-05-14T02:34:39.073Z,9.93
2023-05-14T02:39:42.806Z,9.84
2023-05-14T02:44:46.850Z,9.73
2023-05-14T02:49:50.696Z,9.61
2023-05-14T02:54:54.482Z,9.51
2023-05-14T02:59:58.371Z,9.45
2023-05-14T03:05:03.774Z,9.41
2023-05-14T03:10:08.089Z,9.37
2023-05-14T03:15:12.133Z,9.35
2023-05-14T03:20:16.046Z,9.31
2023-05-14T03:25:20.696Z,9.28
2023-05-14T03:30:24.806Z,9.29
2023-05-14T03:35:29.521Z,9.32
2023-05-14T03:40:34.602Z,9.38
2023-05-14T03:45:40.328Z,9.98
2023-05-14T03:50:45.256Z,10.75
2023-05-14T03:55:49.565Z,11.82
2023-05-14T04:00:54.067Z,12.93
2023-05-14T04:05:57.756Z,14.14
2023-05-14T04:11:01.552Z,15.43
2023-05-14T04:16:06.021Z,16.38
2023-05-14T04:21:09.962Z,17.46
2023-05-14T04:26:13.751Z,18.10
2023-05-14T04:31:17.637Z,18.64
2023-05-14T04:36:21.435Z,19.12
2023-05-14T04:41:26.073Z,20.06
2023-05-14T04:46:29.937Z,20.82
2023-05-14T04:51:33.876Z,21.15
2023-05-14T04:56:37.739Z,21.19
2023-05-14T05:01:41.548Z,21.05
2023-05-14T05:06:46.268Z,20.66
2023-05-14T05:11:51.022Z,19.35
2023-05-14T05:16:54.802Z,17.93
2023-05-14T05:21:58.835Z,16.93
2023-05-14T05:27:02.827Z,16.29
2023-05-14T05:32:08.021Z,15.80
2023-05-14T05:37:14.483Z,15.44
2023-05-14T05:42:19.823Z,15.18
2023-05-14T05:47:23.819Z,15.08
2023-05-14T05:52:28.098Z,15.08
2023-05-14T05:57:32.615Z,15.07
2023-05-14T06:02:37.168Z,15.27
2023-05-14T06:07:42.777Z,15.60
2023-05-14T06:12:47.063Z,15.85
2023-05-14T06:17:51.055Z,16.07
2023-05-14T06:22:54.667Z,16.30
2023-05-14T06:27:58.707Z,16.38
2023-05-14T06:33:02.668Z,16.42
2023-05-14T06:38:06.697Z,16.52
2023-05-14T06:43:10.349Z,16.65
2023-05-14T06:48:14.413Z,16.79
2023-05-14T06:53:18.381Z,17.24
2023-05-14T06:58:22.343Z,17.66
2023-05-14T07:03:26.250Z,17.96
2023-05-14T07:08:30.181Z,18.39
2023-05-14T07:13:34.034Z,18.88
2023-05-14T07:18:37.969Z,19.16
2023-05-14T07:23:41.728Z,19.19
2023-05-14T07:28:45.504Z,19.07
2023-05-14T07:33:49.381Z,18.96
2023-05-14T07:38:53.178Z,18.94
2023-05-14T07:43:56.859Z,19.00
2023-05-14T07:49:03.609Z,19.10
2023-05-14T07:54:08.697Z,19.12
2023-05-14T07:59:14.497Z,19.07
2023-05-14T08:04:19.315Z,18.94
2023-05-14T08:09:23.071Z,18.96
2023-05-14T08:14:26.957Z,19.02
2023-05-14T08:19:30.966Z,19.05
2023-05-14T08:24:35.249Z,19.13
2023-05-14T08:29:39.079Z,19.27
2023-05-14T08:34:44.034Z,19.35
2023-05-14T08:39:48.138Z,19.44
2023-05-14T08:45:04.033Z,19.44
2023-05-14T08:50:08.780Z,19.37
2023-05-14T08:55:17.215Z,19.41
2023-05-14T09:00:24.103Z,19.56
2023-05-14T09:05:28.457Z,19.84
2023-05-14T09:10:32.855Z,19.97
2023-05-14T09:15:38.097Z,19.76
2023-05-14T09:20:41.851Z,19.51
2023-05-14T09:25:46.078Z,19.45
2023-05-14T09:30:53.642Z,19.71
2023-05-14T09:36:03.432Z,19.76
2023-05-14T09:41:07.527Z,19.77
2023-05-14T09:46:11.542Z,19.91
2023-05-14T09:51:16.141Z,19.99
2023-05-14T09:56:20.160Z,19.92
2023-05-14T10:01:25.063Z,19.79
2023-05-14T10:06:34.305Z,19.60
2023-05-14T10:11:38.886Z,19.38
2023-05-14T10:16:47.584Z,19.21
2023-05-14T10:22:12.209Z,19.19
2023-05-14T10:27:17.722Z,19.32
2023-05-14T10:32:24.659Z,19.52
2023-05-14T10:37:29.408Z,19.79
2023-05-14T10:42:42.964Z,20.43
2023-05-14T10:47:49.161Z,21.02
2023-05-14T10:52:53.661Z,21.41
2023-05-14T10:58:05.981Z,21.28
2023-05-14T11:03:10.977Z,20.76
2023-05-14T11:08:14.830Z,20.62
2023-05-14T11:13:19.659Z,20.81
2023-05-14T11:18:29.303Z,20.65
2023-05-14T11:23:33.514Z,20.69
2023-05-14T11:28:37.487Z,21.02
2023-05-14T11:33:41.798Z,21.25
2023-05-14T11:38:52.947Z,21.33
2023-05-14T11:43:58.816Z,21.42
2023-05-14T11:49:05.370Z,21.77
2023-05-14T11:54:09.780Z,22.07
2023-05-14T11:59:13.602Z,22.48
2023-05-14T12:04:19.243Z,22.79
2023-05-14T12:09:23.447Z,22.78
2023-05-14T12:14:30.425Z,22.72
2023-05-14T12:19:34.211Z,22.56
2023-05-14T12:24:39.557Z,22.44
2023-05-14T12:29:44.294Z,22.62
2023-05-14T12:34:47.972Z,22.85
2023-05-14T12:39:51.618Z,22.56
2023-05-14T12:44:55.348Z,22.09
2023-05-14T12:49:59.444Z,21.96
2023-05-14T12:55:04.184Z,22.01
2023-05-14T13:00:14.155Z,22.21
2023-05-14T13:05:18.663Z,22.22
2023-05-14T13:10:32.464Z,22.21
2023-05-14T13:15:36.733Z,22.27
2023-05-14T13:20:43.094Z,22.03
2023-05-14T13:25:49.754Z,21.59
2023-05-14T13:31:07.409Z,21.15
2023-05-14T13:36:13.736Z,21.10
2023-05-14T13:41:17.481Z,21.24
2023-05-14T13:46:23.119Z,21.56
2023-05-14T13:51:27.444Z,22.05
2023-05-14T13:56:31.079Z,22.52
2023-05-14T14:01:34.924Z,22.83
2023-05-14T14:06:40.133Z,23.12
2023-05-14T14:11:43.943Z,23.24
2023-05-14T14:16:48.943Z,23.22
2023-05-14T14:21:52.978Z,23.02
2023-05-14T14:26:57.052Z,22.80
2023-05-14T14:32:00.858Z,22.62
2023-05-14T14:37:06.682Z,22.52
2023-05-14T14:42:10.329Z,22.39
2023-05-14T14:47:14.102Z,22.21
2023-05-14T14:52:18.911Z,22.13
2023-05-14T14:57:23.281Z,21.97
2023-05-14T15:02:27.333Z,21.80
2023-05-14T15:07:33.240Z,21.52
2023-05-14T15:12:37.029Z,21.29
2023-05-14T15:17:40.722Z,21.19
2023-05-14T15:22:44.746Z,21.03
2023-05-14T15:27:49.068Z,21.00
2023-05-14T15:32:52.947Z,21.07
2023-05-14T15:38:00.136Z,21.09
2023-05-14T15:43:04.030Z,21.03
2023-05-14T15:48:07.971Z,20.95
2023-05-14T15:53:11.772Z,20.84
2023-05-14T15:58:15.704Z,20.67
2023-05-14T16:03:21.481Z,20.48
2023-05-14T16:08:27.820Z,20.36
2023-05-14T16:13:31.957Z,20.28
2023-05-14T16:18:35.686Z,20.18
2023-05-14T16:23:39.264Z,20.09
2023-05-14T16:28:43.304Z,19.98
2023-05-14T16:33:47.219Z,19.80
2023-05-14T16:39:06.624Z,19.70
2023-05-14T16:44:11.286Z,19.60
2023-05-14T16:49:18.154Z,19.46
2023-05-14T16:54:21.959Z,19.33
2023-05-14T16:59:25.862Z,19.19
2023-05-14T17:04:29.764Z,19.00
2023-05-14T17:09:34.185Z,18.85
2023-05-14T17:14:37.961Z,18.63
2023-05-14T17:19:43.333Z,18.43
2023-05-14T17:24:47.626Z,18.29
2023-05-14T17:29:52.229Z,18.24
2023-05-14T17:34:57.136Z,18.15
2023-05-14T17:40:01.020Z,17.98
2023-05-14T17:45:06.359Z,17.82
2023-05-14T17:50:10.707Z,17.72
2023-05-14T17:55:14.776Z,17.63
2023-05-14T18:00:22.509Z,17.55
2023-05-14T18:05:26.809Z,17.49
2023-05-14T18:10:31.608Z,17.39
2023-05-14T18:15:37.278Z,17.23
2023-05-14T18:20:46.318Z,16.97
2023-05-14T18:25:51.064Z,16.74
2023-05-14T18:30:58.355Z,16.66
2023-05-14T18:36:04.256Z,16.61
2023-05-14T18:41:09.433Z,16.54
2023-05-14T18:46:14.675Z,16.51
2023-05-14T18:51:19.058Z,16.50
2023-05-14T18:56:26.816Z,16.47
2023-05-14T19:01:33.119Z,16.44
2023-05-14T19:06:43.229Z,16.41
2023-05-14T19:11:48.298Z,16.38
2023-05-14T19:16:53.097Z,16.36
2023-05-14T19:21:58.300Z,16.33
2023-05-14T19:27:05.158Z,16.16
2023-05-14T19:32:10.016Z,16.03
2023-05-14T19:37:16.799Z,16.00
2023-05-14T19:42:21.289Z,16.00
2023-05-14T19:47:25.009Z,16.02
2023-05-14T19:52:32.240Z,15.98
2023-05-14T19:57:37.668Z,15.74
2023-05-14T20:02:42.329Z,15.46
2023-05-14T20:07:49.371Z,15.24
2023-05-14T20:12:53.529Z,15.10
2023-05-14T20:17:58.336Z,14.98
2023-05-14T20:23:03.125Z,14.91
2023-05-14T20:28:07.935Z,14.87
2023-05-14T20:33:13.951Z,14.84
2023-05-14T20:38:19.701Z,14.81
2023-05-14T20:43:23.715Z,14.78
2023-05-14T20:48:28.204Z,14.69
2023-05-14T20:53:32.138Z,14.56
2023-05-14T20:58:35.947Z,14.40
2023-05-14T21:03:41.703Z,14.29
2023-05-14T21:08:46.260Z,14.24
2023-05-14T21:13:50.242Z,14.20
2023-05-14T21:18:55.155Z,14.14
2023-05-14T21:23:59.058Z,14.05
2023-05-14T21:29:04.488Z,13.96
2023-05-14T21:34:08.778Z,13.86
2023-05-14T21:39:13.110Z,13.71
2023-05-14T21:44:17.554Z,13.57
2023-05-14T21:49:21.961Z,13.46
2023-05-14T21:54:25.989Z,13.38
2023-05-14T21:59:30.055Z,13.31
2023-05-14T22:04:34.476Z,13.23
2023-05-14T22:09:38.741Z,13.15
2023-05-14T22:14:42.586Z,13.12
2023-05-14T22:19:46.728Z,13.08
2023-05-14T22:24:50.584Z,13.04
2023-05-14T22:29:55.443Z,12.99
2023-05-14T22:34:59.379Z,12.97
2023-05-14T22:40:05.417Z,12.91
2023-05-14T22:45:09.984Z,12.85
2023-05-14T22:50:13.936Z,12.81
2023-05-14T22:55:18.374Z,12.77
2023-05-14T23:00:22.631Z,12.74
2023-05-14T23:05:27.337Z,12.73
2023-05-14T23:10:31.669Z,12.71
2023-05-14T23:15:35.484Z,12.69
2023-05-14T23:20:39.313Z,12.67
2023-05-14T23:25:43.320Z,12.64
2023-05-14T23:30:47.058Z,12.62
2023-05-14T23:35:50.821Z,12.59
2023-05-14T23:40:54.605Z,12.56
2023-05-14T23:45:58.958Z,12.55
2023-05-14T23:51:03.041Z,12.53
2023-05-14T23:56:06.950Z,12.49
